Time;durP1;ratioP1;P1;durP2;ratioP2;P2;SDS_P1;SDS_P2;PMS_P1;PMS_P2;Temp;Humidity;BMP_temperature;BMP_pressure;BME280_temperature;BME280_humidity;BME280_pressure;Samples;Min_cycle;Max_cycle;Signal;HPM_P1;HPM_P2
2023/01/03 00:01:19;;;;;;;8.32;1.80;;;8.20;1.00;;;;;;4989055;28;20121;-65
2023/01/03 00:03:44;;;;;;;5.82;1.75;;;8.20;1.00;;;;;;4985462;28;20074;-65
2023/01/03 00:06:31;;;;;;;7.20;1.70;;;8.10;1.00;;;;;;4977714;28;20102;-65
2023/01/03 00:08:59;;;;;;;7.20;1.83;;;8.10;1.00;;;;;;4978964;28;20034;-65
2023/01/03 00:14:22;;;;;;;7.25;1.63;;;8.10;1.00;;;;;;5011134;28;20056;-65
2023/01/03 00:16:51;;;;;;;12.55;2.95;;;8.10;1.00;;;;;;4986998;28;20034;-65
2023/01/03 00:19:17;;;;;;;7.53;2.28;;;8.00;1.00;;;;;;4996961;28;20092;-65
2023/01/03 00:21:43;;;;;;;8.13;1.98;;;8.00;1.00;;;;;;4977680;28;20088;-65
2023/01/03 00:24:09;;;;;;;8.90;1.95;;;8.00;1.00;;;;;;4976741;28;20451;-65
2023/01/03 00:26:35;;;;;;;8.45;2.00;;;7.90;1.00;;;;;;4977779;28;20488;-65
2023/01/03 00:29:01;;;;;;;9.98;1.60;;;8.00;1.00;;;;;;4981106;28;20137;-65
2023/01/03 00:31:27;;;;;;;7.57;1.90;;;7.90;1.00;;;;;;4984809;28;20065;-65
2023/01/03 00:33:53;;;;;;;6.97;1.90;;;8.00;99.90;;;;;;4986765;28;20057;-65
2023/01/03 00:36:19;;;;;;;9.57;2.72;;;8.00;99.90;;;;;;4986087;28;20045;-65
2023/01/03 00:38:44;;;;;;;8.85;1.58;;;7.90;99.90;;;;;;4999325;28;20045;-65
2023/01/03 00:41:13;;;;;;;8.75;2.05;;;8.00;99.90;;;;;;4984847;28;20050;-65
2023/01/03 00:43:41;;;;;;;11.18;2.08;;;8.00;99.90;;;;;;5003031;28;20038;-65
2023/01/03 00:46:08;;;;;;;7.10;1.70;;;8.00;99.90;;;;;;5010888;28;20053;-65
2023/01/03 00:48:34;;;;;;;4.43;1.67;;;8.00;99.90;;;;;;4996482;28;20041;-65
2023/01/03 00:51:27;;;;;;;8.52;1.60;;;8.00;99.90;;;;;;4994209;28;20123;-65
2023/01/03 00:53:55;;;;;;;6.43;1.35;;;8.00;99.90;;;;;;5011782;28;20099;-65
2023/01/03 00:56:26;;;;;;;6.20;1.70;;;8.00;99.90;;;;;;4996198;28;20054;-65
2023/01/03 00:58:52;;;;;;;9.30;1.83;;;8.00;99.90;;;;;;5013289;28;20048;-65
2023/01/03 01:01:30;;;;;;;9.02;1.83;;;8.00;99.90;;;;;;4976607;28;20536;-65
2023/01/03 01:04:01;;;;;;;7.25;1.80;;;7.90;99.90;;;;;;5003307;28;20052;-65
2023/01/03 01:06:30;;;;;;;8.05;1.70;;;7.90;99.90;;;;;;4997174;28;20453;-65
2023/01/03 01:08:58;;;;;;;7.90;1.80;;;7.90;99.90;;;;;;4984485;28;20071;-65
2023/01/03 01:11:25;;;;;;;6.57;2.10;;;7.90;99.90;;;;;;4985752;28;20050;-65
2023/01/03 01:13:51;;;;;;;8.13;1.45;;;7.90;99.90;;;;;;4984322;28;20050;-65
2023/01/03 01:16:19;;;;;;;7.53;1.73;;;7.80;99.90;;;;;;5000001;28;20037;-65
2023/01/03 01:18:46;;;;;;;9.27;2.05;;;7.80;99.90;;;;;;4981714;28;20046;-65
2023/01/03 01:21:15;;;;;;;4.25;1.60;;;7.80;99.90;;;;;;4977855;28;20035;-65
2023/01/03 01:23:41;;;;;;;11.88;1.60;;;7.70;99.90;;;;;;4975679;28;20042;-65
2023/01/03 01:26:10;;;;;;;6.32;1.63;;;7.60;99.90;;;;;;4976299;28;20049;-65
2023/01/03 01:28:36;;;;;;;5.35;1.35;;;7.60;99.90;;;;;;4984847;28;20044;-65
2023/01/03 01:31:04;;;;;;;8.50;1.58;;;7.60;99.90;;;;;;4984513;28;20031;-65
2023/01/03 01:33:32;;;;;;;6.13;1.50;;;7.50;99.90;;;;;;4982128;28;20128;-65
2023/01/03 01:35:58;;;;;;;6.40;1.83;;;7.40;99.90;;;;;;4985313;28;20510;-64
2023/01/03 01:38:23;;;;;;;8.20;1.80;;;7.40;99.90;;;;;;4995667;28;20037;-65
2023/01/03 01:40:49;;;;;;;7.90;1.58;;;7.40;99.90;;;;;;5015104;28;20110;-65
2023/01/03 01:46:22;;;;;;;6.97;1.58;;;7.30;99.90;;;;;;4991027;28;20112;-65
2023/01/03 01:48:53;;;;;;;8.45;1.50;;;7.30;99.90;;;;;;4975727;28;20042;-64
2023/01/03 01:51:21;;;;;;;9.40;1.80;;;7.20;99.90;;;;;;4975901;28;20046;-65
2023/01/03 01:53:48;;;;;;;12.82;2.10;;;7.10;99.90;;;;;;4978837;28;20042;-65
2023/01/03 01:56:19;;;;;;;9.43;2.08;;;7.10;99.90;;;;;;4992833;28;20045;-65
2023/01/03 01:58:48;;;;;;;7.18;1.90;;;7.10;1.00;;;;;;4987509;28;20042;-65
2023/01/03 02:01:17;;;;;;;6.85;1.65;;;7.10;1.00;;;;;;4975471;28;20050;-64
2023/01/03 02:03:49;;;;;;;7.50;1.60;;;7.10;1.00;;;;;;5012803;28;20070;-64
2023/01/03 02:06:16;;;;;;;8.65;2.17;;;7.10;1.00;;;;;;4980213;28;20439;-64
2023/01/03 02:08:41;;;;;;;7.15;1.48;;;7.20;1.00;;;;;;4991645;28;20461;-64
2023/01/03 02:11:37;;;;;;;9.95;2.15;;;7.30;1.00;;;;;;4997216;28;20117;-64
2023/01/03 02:14:25;;;;;;;9.10;1.75;;;7.30;99.90;;;;;;5011858;28;20038;-64
2023/01/03 02:17:11;;;;;;;7.18;2.00;;;7.30;99.90;;;;;;5005751;28;20111;-65
2023/01/03 02:19:57;;;;;;;6.03;1.55;;;7.30;99.90;;;;;;4975519;28;20053;-65
2023/01/03 02:22:44;;;;;;;8.93;1.65;;;7.20;99.90;;;;;;4983162;28;20042;-64
2023/01/03 02:25:37;;;;;;;5.22;1.38;;;7.30;99.90;;;;;;4983804;28;20050;-64
2023/01/03 02:28:24;;;;;;;5.57;1.65;;;7.30;99.90;;;;;;4997495;28;20435;-64
2023/01/03 02:31:09;;;;;;;6.28;1.50;;;7.30;99.90;;;;;;4977427;28;20037;-65
2023/01/03 02:34:01;;;;;;;6.28;1.50;;;7.20;99.90;;;;;;4985551;28;20415;-64
2023/01/03 02:36:44;;;;;;;7.70;1.55;;;7.10;99.90;;;;;;4985337;28;20046;-65
2023/01/03 02:39:26;;;;;;;7.80;2.08;;;7.10;99.90;;;;;;4989463;28;20133;-65
2023/01/03 02:45:16;;;;;;;6.00;1.40;;;7.10;99.90;;;;;;4961631;28;20132;-64
2023/01/03 02:47:57;;;;;;;9.00;1.70;;;7.10;99.90;;;;;;4983804;28;20053;-65
2023/01/03 02:50:26;;;;;;;8.90;1.45;;;7.10;99.90;;;;;;4992511;28;20056;-64
2023/01/03 02:52:55;;;;;;;4.10;1.38;;;7.10;99.90;;;;;;4977604;28;20411;-65
2023/01/03 02:55:24;;;;;;;5.57;1.65;;;7.10;99.90;;;;;;4994196;28;20046;-65
2023/01/03 02:58:02;;;;;;;5.03;1.48;;;7.10;99.90;;;;;;4993026;28;20066;-64
2023/01/03 03:00:31;;;;;;;6.75;1.80;;;7.10;99.90;;;;;;4991465;28;20130;-64
2023/01/03 03:03:01;;;;;;;7.22;1.80;;;7.10;99.90;;;;;;4991841;28;20034;-64
2023/01/03 03:05:37;;;;;;;19.98;2.22;;;7.10;99.90;;;;;;4992502;28;20054;-64
2023/01/03 03:08:02;;;;;;;5.25;1.70;;;7.20;99.90;;;;;;4987858;28;20381;-64
2023/01/03 03:13:35;;;;;;;10.60;1.55;;;7.20;99.90;;;;;;4994727;28;20053;-64
2023/01/03 03:16:16;;;;;;;8.13;1.23;;;7.20;99.90;;;;;;4987203;28;20053;-64
2023/01/03 03:18:59;;;;;;;7.53;1.17;;;7.20;99.90;;;;;;4984397;28;20026;-65
2023/01/03 03:29:58;;;;;;;12.25;1.77;;;7.10;1.00;;;;;;4996635;28;20065;-65
2023/01/03 03:32:27;;;;;;;7.10;1.60;;;7.20;1.00;;;;;;4992701;28;20476;-64
2023/01/03 03:34:55;;;;;;;6.03;1.20;;;7.10;1.00;;;;;;4978391;28;20057;-64
2023/01/03 03:37:23;;;;;;;6.75;1.48;;;7.10;1.00;;;;;;4978266;28;20046;-64
2023/01/03 03:45:45;;;;;;;5.03;1.60;;;7.10;1.00;;;;;;4978134;28;20500;-64
2023/01/03 03:48:17;;;;;;;6.95;1.42;;;7.00;1.00;;;;;;4987863;28;20081;-65
2023/01/03 03:50:48;;;;;;;4.35;1.40;;;6.90;1.00;;;;;;4986317;28;20041;-64
2023/01/03 03:53:16;;;;;;;3.50;1.30;;;6.70;1.00;;;;;;4996979;28;20042;-64
2023/01/03 03:55:51;;;;;;;6.20;1.50;;;6.50;1.00;;;;;;4997393;28;20046;-64
2023/01/03 03:58:22;;;;;;;6.57;1.52;;;6.20;1.00;;;;;;4996370;28;20034;-64
2023/01/03 04:00:51;;;;;;;4.28;1.70;;;6.00;1.00;;;;;;4989020;28;20126;-64
2023/01/03 04:03:19;;;;;;;7.35;1.85;;;6.00;1.00;;;;;;5001605;28;20084;-64
2023/01/03 04:05:49;;;;;;;6.13;1.63;;;5.80;1.00;;;;;;4993816;28;20476;-64
2023/01/03 04:08:15;;;;;;;6.25;1.23;;;5.90;1.00;;;;;;4996691;28;20037;-64
2023/01/03 04:10:41;;;;;;;6.75;1.50;;;5.90;1.00;;;;;;4990126;28;20042;-64
2023/01/03 04:13:06;;;;;;;6.22;1.70;;;5.80;1.00;;;;;;4993699;28;20082;-64
2023/01/03 04:15:32;;;;;;;4.72;1.48;;;5.80;1.00;;;;;;4977722;28;20081;-64
2023/01/03 04:18:00;;;;;;;8.10;1.40;;;5.80;1.00;;;;;;4977384;28;20046;-64
2023/01/03 04:20:26;;;;;;;3.50;1.40;;;5.80;11.90;;;;;;4981149;28;20451;-64
2023/01/03 04:22:51;;;;;;;7.70;1.33;;;5.90;25.50;;;;;;5004305;28;20121;-64
2023/01/03 04:25:17;;;;;;;5.32;1.80;;;5.80;43.60;;;;;;4994958;28;20065;-64
2023/01/03 04:27:42;;;;;;;9.30;2.10;;;5.70;66.00;;;;;;4976842;28;20567;-64
2023/01/03 04:30:10;;;;;;;4.72;1.70;;;5.80;91.20;;;;;;4994543;28;20120;-64
2023/01/03 04:32:35;;;;;;;2.38;1.52;;;5.70;99.90;;;;;;4977399;28;20398;-64
2023/01/03 04:35:01;;;;;;;5.15;1.95;;;5.80;99.90;;;;;;4979436;28;20092;-64
2023/01/03 04:37:27;;;;;;;5.07;1.85;;;5.80;99.90;;;;;;4977254;28;20077;-64
2023/01/03 04:39:52;;;;;;;4.82;1.65;;;5.70;99.90;;;;;;4990271;28;20508;-64
2023/01/03 04:45:02;;;;;;;8.00;2.20;;;5.60;99.90;;;;;;4994473;28;20100;-64
2023/01/03 04:47:28;;;;;;;8.52;2.75;;;5.60;99.90;;;;;;4994285;28;20117;-64
2023/01/03 04:49:53;;;;;;;5.78;2.22;;;5.40;99.90;;;;;;4995785;28;20065;-65
2023/01/03 04:52:19;;;;;;;6.20;2.00;;;5.30;99.90;;;;;;5007003;28;20092;-64
2023/01/03 04:54:44;;;;;;;5.20;2.30;;;5.40;99.90;;;;;;4993466;28;20439;-64
2023/01/03 04:57:10;;;;;;;5.75;2.60;;;5.40;99.90;;;;;;4976397;28;20039;-64
2023/01/03 04:59:35;;;;;;;7.57;2.58;;;5.40;99.90;;;;;;4976508;28;20034;-64
2023/01/03 05:02:01;;;;;;;6.43;2.75;;;5.30;99.90;;;;;;4974302;28;20038;-64
2023/01/03 05:04:28;;;;;;;6.70;2.50;;;5.20;1.00;;;;;;4984831;28;20037;-64
2023/01/03 05:06:55;;;;;;;5.20;2.70;;;5.10;1.00;;;;;;5015629;28;20095;-64
2023/01/03 05:09:21;;;;;;;8.45;2.70;;;5.20;1.00;;;;;;5006395;28;20487;-64
2023/01/03 05:11:46;;;;;;;6.50;2.97;;;5.20;1.00;;;;;;4987254;28;20122;-64
2023/01/03 05:14:12;;;;;;;8.82;2.92;;;5.00;1.00;;;;;;4976239;28;20129;-64
2023/01/03 05:16:37;;;;;;;7.28;3.22;;;5.20;1.00;;;;;;4976475;28;20073;-64
2023/01/03 05:19:03;;;;;;;6.32;3.00;;;5.30;58.20;;;;;;4991704;28;20046;-64
2023/01/03 05:27:00;;;;;;;5.80;3.08;;;5.10;99.90;;;;;;4985578;28;20047;-64
2023/01/03 05:29:27;;;;;;;12.77;3.78;;;5.10;99.90;;;;;;4975707;28;20086;-64
2023/01/03 05:31:53;;;;;;;6.30;3.20;;;4.90;99.90;;;;;;4993868;28;20050;-64
2023/01/03 05:34:19;;;;;;;5.93;2.88;;;4.70;99.90;;;;;;4975947;28;20044;-64
2023/01/03 05:36:44;;;;;;;5.93;2.97;;;4.50;99.90;;;;;;4976187;28;20046;-64
2023/01/03 05:39:10;;;;;;;5.85;2.92;;;4.40;99.90;;;;;;4991772;28;20455;-64
2023/01/03 05:44:20;;;;;;;7.68;3.60;;;4.50;99.90;;;;;;4992430;28;20093;-63
2023/01/03 05:46:45;;;;;;;7.03;2.95;;;4.60;1.00;;;;;;4994147;28;20424;-64
2023/01/03 05:49:11;;;;;;;8.75;3.65;;;4.50;1.00;;;;;;4994471;28;20076;-63
2023/01/03 05:51:36;;;;;;;15.20;3.40;;;4.50;1.00;;;;;;5005088;28;20042;-64
2023/01/03 05:54:02;;;;;;;6.18;3.55;;;4.80;14.50;;;;;;4975386;28;20038;-64
2023/01/03 05:56:30;;;;;;;7.15;3.17;;;4.70;99.90;;;;;;4982074;28;20042;-64
2023/01/03 05:58:55;;;;;;;6.38;3.53;;;4.50;99.90;;;;;;4981909;28;20084;-64
2023/01/03 06:01:21;;;;;;;7.70;3.20;;;4.80;99.90;;;;;;4976616;28;20039;-64
2023/01/03 06:03:47;;;;;;;5.90;3.45;;;4.40;99.90;;;;;;4994209;28;20523;-64
2023/01/03 06:06:14;;;;;;;7.97;3.53;;;4.70;99.90;;;;;;4975583;28;20038;-63
2023/01/03 06:08:39;;;;;;;6.47;3.40;;;4.60;99.90;;;;;;4999298;28;20092;-63
2023/01/03 06:11:07;;;;;;;4.47;2.88;;;4.60;99.90;;;;;;5004921;28;20118;-63
2023/01/03 06:13:32;;;;;;;7.97;3.53;;;4.70;1.00;;;;;;4988593;28;20046;-64
2023/01/03 06:18:50;;;;;;;9.30;3.30;;;4.70;99.90;;;;;;4975508;28;20236;-64
2023/01/03 06:21:16;;;;;;;7.47;3.65;;;4.50;99.90;;;;;;4977239;28;20501;-64
2023/01/03 06:23:44;;;;;;;7.35;3.65;;;4.60;99.90;;;;;;4991995;28;20109;-64
2023/01/03 06:26:10;;;;;;;12.68;3.40;;;4.60;99.90;;;;;;4976846;28;20057;-64
2023/01/03 06:28:35;;;;;;;7.00;3.55;;;4.70;99.90;;;;;;4991656;28;20042;-63
2023/01/03 06:31:03;;;;;;;6.55;3.55;;;4.80;99.90;;;;;;4991441;28;20125;-64
2023/01/03 06:33:29;;;;;;;7.13;4.05;;;5.20;99.90;;;;;;4976769;28;20128;-64
2023/01/03 06:35:54;;;;;;;7.95;4.30;;;4.70;1.00;;;;;;5010065;28;20073;-64
2023/01/03 06:38:20;;;;;;;9.25;4.80;;;4.90;1.00;;;;;;4975016;28;20109;-64
2023/01/03 06:40:49;;;;;;;11.10;6.30;;;4.60;1.00;;;;;;4975500;28;20065;-64
2023/01/03 06:43:14;;;;;;;16.65;8.27;;;4.60;1.00;;;;;;4992755;28;20030;-64
2023/01/03 06:53:59;;;;;;;22.80;15.05;;;4.70;87.90;;;;;;4979814;28;20508;-64
2023/01/03 06:56:25;;;;;;;23.83;15.55;;;4.80;99.90;;;;;;4987438;28;20118;-63
2023/01/03 06:58:51;;;;;;;20.88;14.65;;;4.90;99.90;;;;;;4976577;28;20054;-63
2023/01/03 07:01:18;;;;;;;23.88;16.25;;;4.30;1.00;;;;;;4996685;28;20035;-63
2023/01/03 07:03:43;;;;;;;23.50;15.50;;;4.70;1.00;;;;;;4997095;28;20508;-63
2023/01/03 07:06:09;;;;;;;23.73;16.38;;;4.60;1.00;;;;;;4998412;28;20048;-64
2023/01/03 07:08:35;;;;;;;30.73;16.83;;;4.60;1.00;;;;;;4981915;28;20077;-63
2023/01/03 07:11:00;;;;;;;29.73;18.80;;;4.10;1.00;;;;;;4999021;28;20039;-63
2023/01/03 07:16:14;;;;;;;25.50;17.73;;;4.50;46.80;;;;;;4996200;28;20043;-63
2023/01/03 07:18:39;;;;;;;24.70;17.38;;;4.30;99.90;;;;;;4978845;28;20042;-63
2023/01/03 07:21:06;;;;;;;24.55;17.52;;;3.90;99.90;;;;;;5018342;28;20046;-63
2023/01/03 07:23:31;;;;;;;23.55;17.90;;;3.80;99.90;;;;;;5001951;28;20053;-63
2023/01/03 07:25:57;;;;;;;29.48;17.40;;;3.90;1.00;;;;;;4991188;28;20038;-63
2023/01/03 07:28:22;;;;;;;29.50;19.48;;;4.10;1.00;;;;;;4988040;28;20046;-63
2023/01/03 07:30:48;;;;;;;30.88;20.13;;;4.00;96.50;;;;;;5011918;28;20487;-63
2023/01/03 07:33:15;;;;;;;996.67;83.22;;;4.40;99.90;;;;;;5035291;28;20112;-63
2023/01/03 07:35:41;;;;;;;31.70;20.95;;;4.50;99.90;;;;;;5029977;28;20080;-65
2023/01/03 07:38:08;;;;;;;29.60;21.05;;;4.40;1.00;;;;;;4992278;28;20456;-64
2023/01/03 07:40:33;;;;;;;28.67;19.63;;;3.90;1.00;;;;;;4977618;28;20463;-64
2023/01/03 07:45:44;;;;;;;29.10;19.92;;;4.50;99.90;;;;;;4979714;28;20137;-63
2023/01/03 07:48:10;;;;;;;28.27;20.42;;;4.40;1.00;;;;;;4998062;28;20129;-63
2023/01/03 07:50:36;;;;;;;30.00;18.90;;;3.90;1.00;;;;;;4978443;28;20385;-64
2023/01/03 07:53:03;;;;;;;27.42;19.15;;;4.70;1.00;;;;;;4994927;28;20504;-63
2023/01/03 07:55:32;;;;;;;30.40;20.65;;;4.00;56.00;;;;;;5004631;28;20819;-63
2023/01/03 07:57:58;;;;;;;26.08;18.10;;;4.30;99.90;;;;;;4981462;28;20126;-63
2023/01/03 08:00:24;;;;;;;26.38;18.73;;;4.20;99.90;;;;;;4977331;28;20057;-63
2023/01/03 08:02:54;;;;;;;26.40;18.85;;;4.30;99.90;;;;;;5013616;28;20042;-63
2023/01/03 08:05:20;;;;;;;24.58;18.17;;;4.20;1.00;;;;;;4993609;28;20097;-65
2023/01/03 08:07:48;;;;;;;27.67;20.92;;;4.60;1.00;;;;;;4961326;28;20050;-63
2023/01/03 08:13:17;;;;;;;27.23;20.98;;;4.10;23.80;;;;;;5011227;28;20108;-64
2023/01/03 08:15:47;;;;;;;28.10;21.35;;;4.70;75.30;;;;;;4995186;28;20045;-63
2023/01/03 08:18:14;;;;;;;30.25;21.40;;;4.60;97.20;;;;;;5014738;28;20498;-63
2023/01/03 08:20:40;;;;;;;27.52;21.50;;;4.70;99.90;;;;;;5000123;28;20100;-63
2023/01/03 08:23:06;;;;;;;29.38;21.75;;;3.90;99.90;;;;;;5006391;28;20034;-64
2023/01/03 08:25:32;;;;;;;34.17;24.60;;;4.00;99.90;;;;;;5005076;28;20128;-63
2023/01/03 08:27:58;;;;;;;38.58;27.05;;;4.30;99.90;;;;;;4984090;28;20050;-63
2023/01/03 08:30:24;;;;;;;50.03;28.38;;;4.00;1.00;;;;;;4970111;28;20057;-63
2023/01/03 08:32:51;;;;;;;174.57;34.83;;;4.00;84.10;;;;;;4982296;28;20050;-64
2023/01/03 08:35:16;;;;;;;267.42;39.75;;;4.10;99.90;;;;;;4976444;28;20046;-63
2023/01/03 08:37:45;;;;;;;68.07;19.23;;;5.70;1.00;;;;;;5005917;28;20068;-63
2023/01/03 08:40:13;;;;;;;113.18;19.73;;;4.20;1.00;;;;;;4998045;28;20062;-64
2023/01/03 08:42:39;;;;;;;146.55;23.25;;;5.80;99.90;;;;;;4997892;28;20038;-63
2023/01/03 08:45:10;;;;;;;68.60;16.55;;;4.10;99.90;;;;;;5000973;28;20054;-64
2023/01/03 08:47:36;;;;;;;256.40;28.05;;;5.80;99.90;;;;;;4985133;28;20042;-64
2023/01/03 08:50:03;;;;;;;152.32;25.23;;;4.10;99.90;;;;;;5000944;28;20037;-64
2023/01/03 08:52:28;;;;;;;268.85;33.15;;;6.20;99.90;;;;;;4998398;28;20038;-64
2023/01/03 08:54:54;;;;;;;338.80;39.78;;;6.20;99.90;;;;;;4986790;28;20466;-63
2023/01/03 08:57:19;;;;;;;124.75;24.90;;;6.20;99.90;;;;;;4983467;28;20047;-64
2023/01/03 08:59:45;;;;;;;92.20;23.92;;;6.50;99.90;;;;;;4988404;28;20488;-64
2023/01/03 09:02:11;;;;;;;196.00;32.58;;;5.30;99.90;;;;;;4994197;28;20038;-65
2023/01/03 09:04:36;;;;;;;138.55;26.67;;;5.10;99.90;;;;;;4997673;28;20034;-64
2023/01/03 09:07:02;;;;;;;132.65;28.23;;;4.80;99.90;;;;;;4992236;28;20050;-64
2023/01/03 09:09:28;;;;;;;115.82;27.60;;;6.90;99.90;;;;;;4996286;28;20044;-64
2023/01/03 09:11:53;;;;;;;288.48;45.88;;;6.80;99.90;;;;;;4982677;28;20484;-64
2023/01/03 09:14:19;;;;;;;249.95;45.47;;;4.70;99.90;;;;;;4985259;28;20038;-64
2023/01/03 09:16:45;;;;;;;170.82;40.75;;;7.00;99.90;;;;;;5005976;28;20559;-64
2023/01/03 09:19:10;;;;;;;58.17;29.52;;;7.10;99.90;;;;;;4995791;28;20034;-64
2023/01/03 09:21:36;;;;;;;113.15;37.28;;;7.10;99.90;;;;;;5011437;28;20487;-64
2023/01/03 09:24:02;;;;;;;114.45;36.35;;;7.20;99.90;;;;;;4985179;28;20050;-64
2023/01/03 09:26:29;;;;;;;340.02;52.85;;;6.50;99.90;;;;;;4977182;28;20149;-64
2023/01/03 09:28:55;;;;;;;137.35;36.03;;;7.10;99.90;;;;;;4979708;28;20046;-64
2023/01/03 09:31:20;;;;;;;372.52;55.22;;;5.30;99.90;;;;;;4978871;28;20047;-64
2023/01/03 09:33:46;;;;;;;355.88;58.90;;;4.90;99.90;;;;;;4984495;28;20538;-62
2023/01/03 09:36:12;;;;;;;125.25;36.13;;;4.90;99.90;;;;;;4997105;28;20488;-64
2023/01/03 09:38:37;;;;;;;225.25;45.88;;;5.00;99.90;;;;;;4978307;28;20050;-65
2023/01/03 09:41:22;;;;;;;119.38;34.97;;;5.30;99.90;;;;;;4998429;28;20041;-64
2023/01/03 09:43:49;;;;;;;142.15;35.80;;;7.10;99.90;;;;;;5006743;28;20076;-65
2023/01/03 09:46:26;;;;;;;169.15;43.03;;;6.60;99.90;;;;;;4994734;28;20463;-65
2023/01/03 09:48:56;;;;;;;249.60;48.70;;;6.70;99.90;;;;;;4993434;28;20074;-64
2023/01/03 10:06:00;;;;;;;83.65;36.40;;;7.20;99.90;;;;;;4998468;28;20046;-64
2023/01/03 10:08:29;;;;;;;118.05;47.00;;;5.60;99.90;;;;;;4983168;28;20048;-64
2023/01/03 10:11:06;;;;;;;116.10;47.13;;;7.80;99.90;;;;;;4976316;28;20053;-65
2023/01/03 10:13:57;;;;;;;109.35;47.58;;;7.90;99.90;;;;;;4996700;28;20033;-64
2023/01/03 10:16:50;;;;;;;61.60;35.38;;;7.40;99.90;;;;;;4979694;28;20037;-64
2023/01/03 10:19:52;;;;;;;73.75;41.22;;;7.70;99.90;;;;;;4997357;28;20031;-64
2023/01/03 10:22:20;;;;;;;62.97;37.15;;;6.10;99.90;;;;;;4999288;28;20154;-64
2023/01/03 10:24:58;;;;;;;64.45;38.20;;;8.40;99.90;;;;;;5015115;28;20041;-65
2023/01/03 10:27:26;;;;;;;88.47;46.28;;;5.90;99.90;;;;;;5002739;28;20092;-64
2023/01/03 10:29:55;;;;;;;97.28;47.08;;;8.50;99.90;;;;;;5000185;28;20046;-65
2023/01/03 10:32:21;;;;;;;108.32;51.10;;;5.60;99.90;;;;;;4990362;28;20061;-64
2023/01/03 10:35:18;;;;;;;107.15;52.15;;;5.80;99.90;;;;;;4990382;28;20038;-64
2023/01/03 10:37:44;;;;;;;80.72;43.45;;;8.70;99.90;;;;;;4976112;28;20365;-65
2023/01/03 10:40:12;;;;;;;75.80;42.92;;;8.60;99.90;;;;;;4982590;28;20057;-65
2023/01/03 10:42:39;;;;;;;76.75;43.83;;;8.50;99.90;;;;;;4988810;28;20041;-64
2023/01/03 10:45:19;;;;;;;71.15;43.47;;;6.90;99.90;;;;;;5004787;28;20038;-65
2023/01/03 10:48:12;;;;;;;93.90;51.85;;;6.60;99.90;;;;;;4987819;28;20046;-64
2023/01/03 10:50:38;;;;;;;82.28;46.65;;;6.40;99.90;;;;;;4988317;28;20050;-65
2023/01/03 10:53:07;;;;;;;103.68;55.75;;;8.80;99.90;;;;;;5008109;28;20064;-65
2023/01/03 10:55:43;;;;;;;86.32;48.33;;;6.00;99.90;;;;;;4981549;28;20444;-65
2023/01/03 10:58:26;;;;;;;71.38;42.90;;;8.30;99.90;;;;;;5003995;28;20041;-65
2023/01/03 11:01:07;;;;;;;72.55;45.30;;;5.90;99.90;;;;;;4991360;28;20060;-64
2023/01/03 11:03:33;;;;;;;79.55;47.92;;;6.10;99.90;;;;;;4982664;28;20038;-65
2023/01/03 11:05:59;;;;;;;77.25;45.65;;;6.50;99.90;;;;;;4991395;28;20407;-65
2023/01/03 11:08:45;;;;;;;84.28;50.20;;;8.90;99.90;;;;;;4986873;28;20396;-65
2023/01/03 11:11:30;;;;;;;93.70;50.70;;;6.20;99.90;;;;;;4993575;28;20534;-64
2023/01/03 11:14:10;;;;;;;92.07;51.72;;;8.60;99.90;;;;;;5001501;28;20136;-65
2023/01/03 11:16:36;;;;;;;67.00;38.83;;;8.70;99.90;;;;;;5021512;28;20491;-65
2023/01/03 11:19:04;;;;;;;76.05;41.70;;;7.90;99.90;;;;;;4996466;28;20041;-65
2023/01/03 11:21:57;;;;;;;74.30;43.35;;;9.60;99.90;;;;;;5008565;28;20539;-64
2023/01/03 11:24:37;;;;;;;66.10;41.40;;;6.60;99.90;;;;;;4998543;28;20038;-64
2023/01/03 11:27:58;;;;;;;71.43;46.22;;;6.50;99.90;;;;;;4992741;28;20050;-65
2023/01/03 11:30:49;;;;;;;84.32;43.95;;;7.70;99.90;;;;;;4962185;28;20045;-65
2023/01/03 11:33:22;;;;;;;69.63;41.28;;;9.70;99.90;;;;;;4993274;28;20136;-65
2023/01/03 11:36:05;;;;;;;58.17;37.72;;;9.50;99.90;;;;;;4996087;28;20506;-64
2023/01/03 11:38:54;;;;;;;56.63;36.75;;;6.80;99.90;;;;;;4977826;28;20044;-65
2023/01/03 11:41:38;;;;;;;62.13;38.85;;;9.60;99.90;;;;;;4983220;28;20165;-65
2023/01/03 11:44:57;;;;;;;53.47;32.88;;;9.80;99.90;;;;;;5000210;28;20057;-65
2023/01/03 11:47:56;;;;;;;58.83;37.47;;;7.20;99.90;;;;;;4917047;29;20043;-65
2023/01/03 11:50:31;;;;;;;56.20;35.78;;;9.80;99.90;;;;;;4909046;29;20059;-65
2023/01/03 11:53:02;;;;;;;61.30;37.72;;;7.90;99.90;;;;;;4981060;28;20054;-65
2023/01/03 11:55:55;;;;;;;63.90;37.33;;;8.60;99.90;;;;;;4990192;28;20499;-65
2023/01/03 11:58:46;;;;;;;48.20;29.75;;;9.60;99.90;;;;;;4982426;28;20053;-65
2023/01/03 12:01:31;;;;;;;52.67;31.75;;;7.70;99.90;;;;;;4989241;28;20073;-65
2023/01/03 12:04:12;;;;;;;47.55;29.75;;;7.60;99.90;;;;;;4983148;28;20046;-64
2023/01/03 12:06:56;;;;;;;52.90;32.78;;;8.60;99.90;;;;;;4987093;28;20077;-65
2023/01/03 12:09:56;;;;;;;47.75;31.58;;;10.20;99.90;;;;;;4994738;28;20072;-66
2023/01/03 12:12:34;;;;;;;48.85;27.45;;;7.30;99.90;;;;;;4980714;28;20057;-65
2023/01/03 12:15:13;;;;;;;56.70;36.10;;;7.40;99.90;;;;;;4993515;28;20134;-65
2023/01/03 12:18:09;;;;;;;47.47;29.73;;;7.30;99.90;;;;;;4998418;28;20338;-65
2023/01/03 12:20:44;;;;;;;44.20;27.85;;;8.10;99.90;;;;;;5008230;28;20053;-65
2023/01/03 12:23:31;;;;;;;40.92;29.05;;;9.80;99.90;;;;;;4986492;28;20506;-65
2023/01/03 12:26:01;;;;;;;48.28;33.85;;;7.60;99.90;;;;;;4994902;28;20124;-66
2023/01/03 12:28:42;;;;;;;55.42;33.60;;;9.70;99.90;;;;;;4981343;28;20133;-65
2023/01/03 12:31:26;;;;;;;60.85;34.97;;;10.60;99.90;;;;;;4978317;28;20053;-65
2023/01/03 12:34:25;;;;;;;60.00;33.47;;;10.30;99.90;;;;;;4983105;28;20423;-65
2023/01/03 12:37:14;;;;;;;53.38;31.25;;;10.70;99.90;;;;;;4995960;28;20518;-65
2023/01/03 12:39:54;;;;;;;54.58;31.42;;;10.00;99.90;;;;;;5004211;28;20460;-65
2023/01/03 12:42:28;;;;;;;49.88;28.48;;;10.80;99.90;;;;;;4991119;28;20189;-65
2023/01/03 12:45:02;;;;;;;46.95;29.65;;;9.80;99.90;;;;;;4987170;28;20042;-65
2023/01/03 12:47:34;;;;;;;58.92;32.03;;;7.80;99.90;;;;;;4980361;28;20400;-65
2023/01/03 12:50:20;;;;;;;68.78;36.05;;;7.80;99.90;;;;;;5000538;28;20526;-65
2023/01/03 12:52:53;;;;;;;60.78;36.45;;;10.30;99.90;;;;;;4973259;28;20034;-65
2023/01/03 12:55:45;;;;;;;54.10;32.50;;;10.00;99.90;;;;;;4992695;28;20046;-65
2023/01/03 12:58:17;;;;;;;69.05;34.47;;;10.80;99.90;;;;;;4975725;28;20046;-65
2023/01/03 13:01:07;;;;;;;58.20;33.80;;;9.10;99.90;;;;;;4998631;28;20114;-66
2023/01/03 13:03:36;;;;;;;57.85;32.22;;;11.00;99.90;;;;;;5011692;28;20109;-65
2023/01/03 13:06:18;;;;;;;54.10;35.15;;;8.20;99.90;;;;;;4985423;28;20125;-65
2023/01/03 13:08:54;;;;;;;59.30;34.05;;;11.00;99.90;;;;;;4981399;28;20035;-65
2023/01/03 13:11:29;;;;;;;54.70;33.03;;;10.30;99.90;;;;;;5007953;28;20049;-65
2023/01/03 13:14:04;;;;;;;62.72;34.50;;;10.90;99.90;;;;;;4981647;28;20069;-65
2023/01/03 13:16:35;;;;;;;44.40;28.85;;;10.30;99.90;;;;;;4976864;28;20078;-65
2023/01/03 13:19:22;;;;;;;45.65;28.75;;;8.40;99.90;;;;;;4976512;28;20042;-65
2023/01/03 13:22:21;;;;;;;41.28;26.42;;;10.40;99.90;;;;;;4995776;28;20033;-67
2023/01/03 13:24:52;;;;;;;44.22;29.02;;;10.90;99.90;;;;;;4981385;28;20050;-66
2023/01/03 13:27:21;;;;;;;56.85;32.00;;;9.10;99.90;;;;;;4991339;28;20052;-65
2023/01/03 13:29:49;;;;;;;60.38;34.88;;;11.20;99.90;;;;;;5004669;28;20060;-65
2023/01/03 13:32:24;;;;;;;53.15;32.00;;;8.40;99.90;;;;;;4992772;28;20125;-65
2023/01/03 13:34:53;;;;;;;55.25;32.42;;;8.70;99.90;;;;;;4992711;28;20502;-65
2023/01/03 13:37:25;;;;;;;54.45;28.65;;;11.10;99.90;;;;;;4985971;28;20597;-65
2023/01/03 13:39:51;;;;;;;62.17;31.70;;;10.90;99.90;;;;;;4976395;28;20054;-65
2023/01/03 13:42:37;;;;;;;65.43;30.98;;;11.40;99.90;;;;;;5002798;28;20449;-65
2023/01/03 13:45:18;;;;;;;49.22;28.63;;;9.90;99.90;;;;;;5016709;28;20045;-65
2023/01/03 13:47:46;;;;;;;63.60;35.20;;;10.40;99.90;;;;;;4999680;28;20427;-65
2023/01/03 13:50:22;;;;;;;64.35;33.25;;;8.80;99.90;;;;;;4971572;28;20056;-65
2023/01/03 13:53:09;;;;;;;67.13;36.55;;;11.50;99.90;;;;;;4988580;28;20046;-65
2023/01/03 13:55:55;;;;;;;50.47;28.25;;;8.60;99.90;;;;;;4987616;28;20136;-65
2023/01/03 13:58:39;;;;;;;51.53;29.88;;;10.90;99.90;;;;;;5003684;28;20467;-65
2023/01/03 14:01:35;;;;;;;55.35;31.58;;;11.70;99.90;;;;;;4976156;28;20030;-65
2023/01/03 14:04:17;;;;;;;46.35;28.83;;;10.40;99.90;;;;;;4998696;28;20037;-65
2023/01/03 14:07:00;;;;;;;48.33;29.13;;;8.80;99.90;;;;;;5008610;28;20053;-65
2023/01/03 14:09:47;;;;;;;56.70;31.98;;;11.30;99.90;;;;;;4993124;28;20045;-65
2023/01/03 14:12:31;;;;;;;;;;;9.50;99.90;;;;;;4979367;28;20121;-65
2023/01/03 14:14:57;;;;;;;38.65;24.70;;;10.10;99.90;;;;;;4977185;28;19918;-65
2023/01/03 14:17:35;;;;;;;34.70;24.10;;;11.20;99.90;;;;;;4977308;28;20049;-65
2023/01/03 14:20:08;;;;;;;37.33;24.85;;;9.30;99.90;;;;;;4999027;28;20121;-65
2023/01/03 14:22:40;;;;;;;48.15;26.70;;;11.80;99.90;;;;;;4993411;28;20038;-65